createdAt,value
2017-03-25T00:00:22.210Z,9.23
2017-03-25T00:01:21.998Z,9.29
2017-03-25T00:02:22.360Z,9.30
2017-03-25T00:03:22.543Z,9.11
2017-03-25T00:04:22.421Z,9.14
2017-03-25T00:05:34.187Z,9.29
2017-03-25T00:06:21.013Z,9.23
2017-03-25T00:07:21.899Z,9.34
2017-03-25T00:08:21.910Z,9.32
2017-03-25T00:09:22.218Z,9.24
2017-03-25T00:10:21.861Z,9.09
2017-03-25T00:11:22.132Z,9.27
2017-03-25T00:12:22.139Z,9.10
2017-03-25T00:13:21.936Z,9.05
2017-03-25T00:14:21.839Z,9.28
2017-03-25T00:15:21.949Z,9.29
2017-03-25T00:16:21.794Z,9.22
2017-03-25T00:17:17.216Z,9.09
2017-03-25T00:18:21.466Z,9.02
2017-03-25T00:19:36.219Z,8.93
2017-03-25T00:20:22.037Z,9.03
2017-03-25T00:21:22.437Z,9.10
2017-03-25T00:22:21.919Z,9.17
2017-03-25T00:23:22.017Z,9.10
2017-03-25T00:24:22.007Z,9.00
2017-03-25T00:25:22.406Z,8.98
2017-03-25T00:26:22.127Z,8.79
2017-03-25T00:27:22.239Z,8.84
2017-03-25T00:28:28.351Z,8.87
2017-03-25T00:29:22.358Z,8.97
2017-03-25T00:30:21.709Z,8.96
2017-03-25T00:31:24.445Z,9.22
2017-03-25T00:32:21.933Z,9.12
2017-03-25T00:33:21.738Z,9.14
2017-03-25T00:34:22.021Z,9.14
2017-03-25T00:35:21.986Z,8.94
2017-03-25T00:36:16.258Z,9.00
2017-03-25T00:37:22.356Z,8.79
2017-03-25T00:38:22.355Z,8.65
2017-03-25T00:39:22.216Z,8.80
2017-03-25T00:40:22.487Z,8.84
2017-03-25T00:41:22.129Z,8.91
2017-03-25T00:42:21.958Z,9.07
2017-03-25T00:43:30.078Z,8.94
2017-03-25T00:44:22.050Z,8.93
2017-03-25T00:45:22.266Z,8.86
2017-03-25T00:46:35.048Z,8.78
2017-03-25T00:47:22.599Z,8.88
2017-03-25T00:48:24.587Z,8.94
2017-03-25T00:49:22.386Z,8.84
2017-03-25T00:50:22.447Z,8.90
2017-03-25T00:51:22.008Z,9.02
2017-03-25T00:52:21.841Z,8.97
2017-03-25T00:53:22.011Z,8.85
2017-03-25T00:54:22.259Z,8.96
2017-03-25T00:55:22.590Z,8.92
2017-03-25T00:56:29.837Z,9.05
2017-03-25T00:57:21.839Z,9.16
2017-03-25T00:58:22.408Z,9.12
2017-03-25T00:59:22.357Z,9.05
2017-03-25T01:00:22.160Z,9.22
2017-03-25T01:01:17.602Z,9.09
2017-03-25T01:02:22.268Z,8.94
2017-03-25T01:03:21.834Z,9.09
2017-03-25T01:04:21.792Z,9.19
2017-03-25T01:05:21.619Z,9.16
2017-03-25T01:06:21.506Z,8.98
2017-03-25T01:07:21.967Z,9.04
2017-03-25T01:08:22.267Z,8.90
2017-03-25T01:09:29.868Z,8.88
2017-03-25T01:10:16.914Z,8.78
2017-03-25T01:11:22.528Z,8.84
2017-03-25T01:12:29.847Z,8.91
2017-03-25T01:13:22.070Z,8.89
2017-03-25T01:14:16.929Z,8.80
2017-03-25T01:15:21.651Z,8.90
2017-03-25T01:16:22.061Z,8.88
2017-03-25T01:17:21.760Z,8.91
2017-03-25T01:18:21.772Z,8.83
2017-03-25T01:19:22.212Z,8.83
2017-03-25T01:20:22.288Z,8.88
2017-03-25T01:21:16.622Z,9.03
2017-03-25T01:22:21.691Z,9.04
2017-03-25T01:23:22.219Z,9.02
2017-03-25T01:24:22.434Z,9.02
2017-03-25T01:25:16.930Z,9.05
2017-03-25T01:26:22.186Z,8.97
2017-03-25T01:27:21.517Z,8.92
2017-03-25T01:28:22.121Z,8.73
2017-03-25T01:29:21.841Z,8.58
2017-03-25T01:30:17.224Z,8.78
2017-03-25T01:31:21.899Z,8.77
2017-03-25T01:32:22.298Z,8.62
2017-03-25T01:33:22.276Z,8.74
2017-03-25T01:34:22.129Z,8.70
2017-03-25T01:35:22.333Z,8.54
2017-03-25T01:36:21.192Z,8.64
2017-03-25T01:37:22.506Z,8.63
2017-03-25T01:38:22.331Z,8.63
2017-03-25T01:39:22.218Z,8.69
2017-03-25T01:40:22.176Z,8.80
2017-03-25T01:41:22.426Z,8.89
2017-03-25T01:42:17.282Z,8.89
2017-03-25T01:43:21.937Z,8.80
2017-03-25T01:44:21.525Z,8.75
2017-03-25T01:45:21.746Z,8.81
2017-03-25T01:46:21.746Z,8.71
2017-03-25T01:47:22.368Z,8.52
2017-03-25T01:48:22.414Z,8.50
2017-03-25T01:49:22.383Z,8.73
2017-03-25T01:50:22.234Z,8.81
2017-03-25T01:51:22.396Z,8.64
2017-03-25T01:52:22.577Z,8.53
2017-03-25T01:53:21.662Z,8.74
2017-03-25T01:54:21.905Z,8.89
2017-03-25T01:55:21.713Z,8.79
2017-03-25T01:56:22.125Z,8.81
2017-03-25T01:57:22.243Z,8.82
2017-03-25T01:58:21.553Z,8.87
2017-03-25T01:59:17.262Z,8.55
2017-03-25T02:00:17.417Z,8.65
2017-03-25T02:01:20.251Z,8.62
2017-03-25T02:02:22.030Z,8.60
2017-03-25T02:03:22.254Z,8.68
2017-03-25T02:04:22.689Z,8.83
2017-03-25T02:05:22.359Z,8.93
2017-03-25T02:06:21.489Z,8.87
2017-03-25T02:07:21.895Z,8.93
2017-03-25T02:08:22.251Z,8.89
2017-03-25T02:09:21.896Z,8.91
2017-03-25T02:10:17.401Z,8.92
2017-03-25T02:11:22.116Z,8.88
2017-03-25T02:12:22.250Z,8.91
2017-03-25T02:13:17.613Z,8.70
2017-03-25T02:14:22.246Z,8.75
2017-03-25T02:15:17.320Z,8.83
2017-03-25T02:16:22.248Z,8.83
2017-03-25T02:17:17.926Z,8.77
2017-03-25T02:18:22.169Z,8.96
2017-03-25T02:19:22.078Z,8.82
2017-03-25T02:20:21.869Z,8.88
2017-03-25T02:21:21.677Z,8.90
2017-03-25T02:22:16.977Z,8.83
2017-03-25T02:23:22.405Z,8.68
2017-03-25T02:24:17.300Z,8.55
2017-03-25T02:25:21.678Z,8.58
2017-03-25T02:26:21.607Z,8.52
2017-03-25T02:27:21.668Z,8.52
2017-03-25T02:28:21.735Z,8.45
2017-03-25T02:29:16.934Z,8.59
2017-03-25T02:30:22.147Z,8.52
2017-03-25T02:31:22.168Z,8.59
2017-03-25T02:32:22.371Z,8.69
2017-03-25T02:33:21.658Z,8.44
2017-03-25T02:34:22.109Z,8.60
2017-03-25T02:35:21.803Z,8.39
2017-03-25T02:36:21.581Z,8.47
2017-03-25T02:37:22.407Z,8.46
2017-03-25T02:38:17.691Z,8.43
2017-03-25T02:39:21.910Z,8.40
2017-03-25T02:40:22.019Z,8.61
2017-03-25T02:42:22.560Z,8.57
2017-03-25T02:43:17.315Z,8.64
2017-03-25T02:44:22.271Z,8.61
2017-03-25T02:45:27.291Z,8.67
2017-03-25T02:46:22.511Z,8.78
2017-03-25T02:47:22.398Z,8.86
2017-03-25T02:48:21.648Z,8.84
2017-03-25T02:49:21.680Z,8.80
2017-03-25T02:50:33.528Z,8.98
2017-03-25T02:51:21.781Z,8.80
2017-03-25T02:52:24.481Z,8.87
2017-03-25T02:53:22.417Z,8.79
2017-03-25T02:54:24.447Z,8.77
2017-03-25T02:55:22.422Z,8.75
2017-03-25T02:56:22.430Z,8.74
2017-03-25T02:57:21.959Z,8.75
2017-03-25T02:58:21.732Z,8.87
2017-03-25T02:59:21.735Z,8.71
2017-03-25T03:00:21.124Z,8.64
2017-03-25T03:01:17.433Z,8.56
2017-03-25T03:02:22.320Z,8.60
2017-03-25T03:03:22.353Z,8.69
2017-03-25T03:04:22.272Z,8.77
2017-03-25T03:05:22.330Z,8.77
2017-03-25T03:06:21.475Z,8.55
2017-03-25T03:07:22.331Z,8.56
2017-03-25T03:08:16.677Z,8.78
2017-03-25T03:09:22.352Z,8.88
2017-03-25T03:10:21.821Z,8.78
2017-03-25T03:11:22.013Z,8.68
2017-03-25T03:12:22.331Z,8.57
2017-03-25T03:13:22.073Z,8.56
2017-03-25T03:14:22.243Z,8.48
2017-03-25T03:15:17.574Z,8.54
2017-03-25T03:16:22.392Z,8.54
2017-03-25T03:17:22.233Z,8.51
2017-03-25T03:18:22.141Z,8.58
2017-03-25T03:19:22.262Z,8.57
2017-03-25T03:20:17.510Z,8.57
2017-03-25T03:21:24.588Z,8.57
2017-03-25T03:22:21.854Z,8.43
2017-03-25T03:23:21.896Z,8.54
2017-03-25T03:24:33.655Z,8.63
2017-03-25T03:25:21.727Z,8.74
2017-03-25T03:26:22.150Z,8.71
2017-03-25T03:27:22.259Z,8.58
2017-03-25T03:28:22.085Z,8.51
2017-03-25T03:29:22.395Z,8.67
2017-03-25T03:30:21.990Z,8.46
2017-03-25T03:31:22.606Z,8.49
2017-03-25T03:33:22.052Z,8.38
2017-03-25T03:34:21.928Z,8.35
2017-03-25T03:35:21.927Z,8.47
2017-03-25T03:36:22.045Z,8.31
2017-03-25T03:37:22.525Z,8.47
2017-03-25T03:38:21.573Z,8.41
2017-03-25T03:39:16.663Z,8.46
2017-03-25T03:40:21.959Z,8.46
2017-03-25T03:41:22.066Z,8.44
2017-03-25T03:42:22.117Z,8.53
2017-03-25T03:43:17.226Z,8.50
2017-03-25T03:44:22.582Z,8.48
2017-03-25T03:45:22.351Z,8.40
2017-03-25T03:46:21.626Z,8.34
2017-03-25T03:47:22.627Z,8.38
2017-03-25T03:48:22.591Z,8.53
2017-03-25T03:49:21.905Z,8.62
2017-03-25T03:50:21.855Z,8.59
2017-03-25T03:51:22.496Z,8.53
2017-03-25T03:52:22.337Z,8.56
2017-03-25T03:53:22.114Z,8.61
2017-03-25T03:54:21.588Z,8.56
2017-03-25T03:55:21.757Z,8.38
2017-03-25T03:56:21.495Z,8.35
2017-03-25T03:57:17.392Z,8.37
2017-03-25T03:58:21.928Z,8.36
2017-03-25T03:59:22.038Z,8.53
2017-03-25T04:00:22.057Z,8.59
2017-03-25T04:01:21.948Z,8.52
2017-03-25T04:03:22.438Z,8.39
2017-03-25T04:04:22.059Z,8.44
2017-03-25T04:05:22.058Z,8.29
2017-03-25T04:06:21.999Z,8.37
2017-03-25T04:07:17.239Z,8.34
2017-03-25T04:08:22.167Z,8.45
2017-03-25T04:09:21.768Z,8.48
2017-03-25T04:10:17.476Z,8.49
2017-03-25T04:11:16.477Z,8.61
2017-03-25T04:12:22.578Z,8.42
2017-03-25T04:13:22.387Z,8.52
2017-03-25T04:14:22.175Z,8.37
2017-03-25T04:15:21.938Z,8.48
2017-03-25T04:16:22.039Z,8.27
2017-03-25T04:17:22.317Z,8.22
2017-03-25T04:18:17.494Z,8.34
2017-03-25T04:19:21.680Z,8.36
2017-03-25T04:20:22.277Z,8.42
2017-03-25T04:21:17.391Z,8.48
2017-03-25T04:22:22.387Z,8.58
2017-03-25T04:23:21.480Z,8.62
2017-03-25T04:24:21.889Z,8.54
2017-03-25T04:25:17.968Z,8.39
2017-03-25T04:26:17.487Z,8.33
2017-03-25T04:27:22.028Z,8.45
2017-03-25T04:28:16.769Z,8.52
2017-03-25T04:29:21.722Z,8.32
2017-03-25T04:30:22.099Z,8.25
2017-03-25T04:31:22.347Z,8.46
2017-03-25T04:32:22.052Z,8.33
2017-03-25T04:33:22.101Z,8.30
2017-03-25T04:34:17.610Z,8.25
2017-03-25T04:35:22.429Z,8.41
2017-03-25T04:36:22.389Z,8.35
2017-03-25T04:37:22.436Z,8.09
2017-03-25T04:38:22.547Z,8.15
2017-03-25T04:39:21.479Z,8.34
2017-03-25T04:40:21.912Z,8.30
2017-03-25T04:41:22.420Z,8.38
2017-03-25T04:42:17.521Z,8.36
2017-03-25T04:43:22.023Z,8.42
2017-03-25T04:44:22.103Z,8.48
2017-03-25T04:45:27.586Z,8.39
2017-03-25T04:46:16.973Z,8.19
2017-03-25T04:47:22.154Z,8.03
2017-03-25T04:48:22.154Z,8.23
2017-03-25T04:49:21.793Z,8.42
2017-03-25T04:50:22.264Z,8.34
2017-03-25T04:51:17.390Z,8.42
2017-03-25T04:52:11.871Z,8.52
2017-03-25T04:53:21.583Z,8.41
2017-03-25T04:54:22.410Z,8.42
2017-03-25T04:55:22.510Z,8.56
2017-03-25T04:56:22.112Z,8.40
2017-03-25T04:58:22.332Z,8.32
2017-03-25T04:59:21.512Z,8.31
2017-03-25T05:00:21.740Z,8.24
2017-03-25T05:01:21.776Z,8.30
2017-03-25T05:02:22.052Z,8.30
2017-03-25T05:03:22.333Z,8.30
2017-03-25T05:04:22.369Z,8.29
2017-03-25T05:05:22.172Z,8.25
2017-03-25T05:06:18.091Z,8.16
2017-03-25T05:07:17.186Z,8.22
2017-03-25T05:08:22.470Z,8.25
2017-03-25T05:09:17.283Z,8.29
2017-03-25T05:10:16.638Z,8.01
2017-03-25T05:11:16.623Z,8.08
2017-03-25T05:12:21.931Z,8.23
2017-03-25T05:13:22.215Z,8.19
2017-03-25T05:14:22.283Z,8.18
2017-03-25T05:15:22.213Z,8.38
2017-03-25T05:16:22.044Z,8.28
2017-03-25T05:17:22.282Z,8.31
2017-03-25T05:18:22.462Z,8.37
2017-03-25T05:19:22.043Z,8.16
2017-03-25T05:20:22.165Z,8.35
2017-03-25T05:21:12.276Z,8.18
2017-03-25T05:22:17.253Z,8.43
2017-03-25T05:23:22.216Z,8.45
2017-03-25T05:24:22.255Z,8.42
2017-03-25T05:26:22.411Z,8.43
2017-03-25T05:27:22.524Z,8.36
2017-03-25T05:28:17.661Z,8.24
2017-03-25T05:29:22.333Z,8.21
2017-03-25T05:30:16.640Z,8.27
2017-03-25T05:31:21.736Z,8.40
2017-03-25T05:32:21.847Z,8.33
2017-03-25T05:33:22.229Z,8.28
2017-03-25T05:34:22.161Z,8.42
2017-03-25T05:35:22.213Z,8.30
2017-03-25T05:36:18.120Z,8.32
2017-03-25T05:37:22.236Z,8.11
2017-03-25T05:38:22.532Z,8.21
2017-03-25T05:39:22.095Z,8.30
2017-03-25T05:40:22.225Z,8.54
2017-03-25T05:41:17.086Z,8.62
2017-03-25T05:42:14.211Z,8.50
2017-03-25T05:43:22.425Z,8.41
2017-03-25T05:44:21.937Z,8.35
2017-03-25T05:45:20.266Z,8.32
2017-03-25T05:46:12.383Z,8.43
2017-03-25T05:47:17.330Z,8.48
2017-03-25T05:48:24.079Z,8.62
2017-03-25T05:49:21.977Z,8.58
2017-03-25T05:50:22.582Z,8.57
2017-03-25T05:51:18.177Z,8.38
2017-03-25T05:52:27.539Z,8.49
2017-03-25T05:53:17.412Z,8.59
2017-03-25T05:54:22.286Z,8.65
2017-03-25T05:55:22.407Z,8.50
2017-03-25T05:56:22.406Z,8.61
2017-03-25T05:57:21.667Z,8.49
2017-03-25T05:58:21.807Z,8.57
2017-03-25T05:59:17.289Z,8.62
2017-03-25T06:00:21.686Z,8.62
2017-03-25T06:01:21.906Z,8.72
2017-03-25T06:02:21.980Z,8.43
2017-03-25T06:03:11.706Z,8.32
2017-03-25T06:04:17.359Z,8.37
2017-03-25T06:05:22.506Z,8.33
2017-03-25T06:06:18.096Z,8.48
2017-03-25T06:07:22.484Z,8.39
2017-03-25T06:08:17.297Z,8.34
2017-03-25T06:09:22.057Z,8.16
2017-03-25T06:10:21.786Z,8.36
2017-03-25T06:11:17.497Z,8.43
2017-03-25T06:12:22.284Z,8.35
2017-03-25T06:13:22.287Z,8.43
2017-03-25T06:14:17.376Z,8.42
2017-03-25T06:15:17.026Z,8.43
2017-03-25T06:16:11.950Z,8.39
2017-03-25T06:17:21.731Z,8.54
2017-03-25T06:18:22.504Z,8.62
2017-03-25T06:19:21.578Z,8.58
2017-03-25T06:20:22.111Z,8.55
2017-03-25T06:21:18.311Z,8.56
2017-03-25T06:22:22.559Z,8.37
2017-03-25T06:23:16.702Z,8.49
2017-03-25T06:24:16.887Z,8.47
2017-03-25T06:25:16.981Z,8.51
2017-03-25T06:26:20.116Z,8.54
2017-03-25T06:27:16.926Z,8.64
2017-03-25T06:28:21.811Z,8.64
2017-03-25T06:29:12.487Z,8.46
2017-03-25T06:30:20.687Z,8.39
2017-03-25T06:31:21.725Z,8.48
2017-03-25T06:32:17.118Z,8.52
2017-03-25T06:33:22.228Z,8.67
2017-03-25T06:34:17.381Z,8.74
2017-03-25T06:35:21.706Z,8.72
2017-03-25T06:36:18.381Z,8.67
2017-03-25T06:37:16.832Z,8.78
2017-03-25T06:38:21.711Z,8.90
2017-03-25T06:39:17.852Z,8.93
2017-03-25T06:40:16.891Z,9.04
2017-03-25T06:41:22.198Z,8.91
2017-03-25T06:42:27.528Z,8.68
2017-03-25T06:43:22.375Z,8.76
2017-03-25T06:44:17.376Z,8.79
2017-03-25T06:45:22.495Z,8.76
2017-03-25T06:46:22.213Z,8.67
2017-03-25T06:47:22.342Z,8.46
2017-03-25T06:48:22.444Z,8.58
2017-03-25T06:49:22.117Z,8.64
2017-03-25T06:50:21.844Z,8.48
2017-03-25T06:51:18.274Z,8.42
2017-03-25T06:52:22.521Z,8.49
2017-03-25T06:53:22.114Z,8.72
2017-03-25T06:54:22.177Z,8.57
2017-03-25T06:55:22.502Z,8.66
2017-03-25T06:56:22.099Z,8.61
2017-03-25T06:57:22.278Z,8.66
2017-03-25T06:58:21.910Z,8.53
2017-03-25T06:59:11.843Z,8.63
2017-03-25T07:00:17.297Z,8.54
2017-03-25T07:01:21.728Z,8.65
2017-03-25T07:02:22.039Z,8.83
2017-03-25T07:03:17.544Z,8.94
2017-03-25T07:04:22.485Z,8.98
2017-03-25T07:05:22.595Z,8.97
2017-03-25T07:06:18.196Z,9.00
2017-03-25T07:07:21.767Z,9.01
2017-03-25T07:08:22.205Z,9.05
2017-03-25T07:09:22.304Z,8.93
2017-03-25T07:10:22.298Z,9.03
2017-03-25T07:11:22.354Z,8.66
2017-03-25T07:12:22.625Z,8.70
2017-03-25T07:13:16.755Z,8.78
2017-03-25T07:14:11.758Z,8.80
2017-03-25T07:15:22.223Z,8.93
2017-03-25T07:16:17.038Z,8.98
2017-03-25T07:17:22.345Z,9.10
2017-03-25T07:18:22.272Z,9.20
2017-03-25T07:19:22.455Z,9.20
2017-03-25T07:20:21.625Z,8.94
2017-03-25T07:21:18.882Z,8.96
2017-03-25T07:22:22.634Z,9.01
2017-03-25T07:23:21.871Z,8.97
2017-03-25T07:24:21.774Z,8.88
2017-03-25T07:25:16.747Z,8.84
2017-03-25T07:26:21.993Z,8.95
2017-03-25T07:27:21.893Z,9.13
2017-03-25T07:28:17.018Z,9.04
2017-03-25T07:29:22.832Z,9.14
2017-03-25T07:30:22.115Z,8.90
2017-03-25T07:31:22.880Z,8.86
2017-03-25T07:32:21.934Z,8.89
2017-03-25T07:33:23.691Z,8.77
2017-03-25T07:34:22.351Z,9.03
2017-03-25T07:35:21.553Z,8.99
2017-03-25T07:36:18.570Z,8.90
2017-03-25T07:37:21.904Z,8.85
2017-03-25T07:38:21.913Z,8.64
2017-03-25T07:39:22.154Z,9.02
2017-03-25T07:40:22.033Z,8.93
2017-03-25T07:41:22.192Z,8.84
2017-03-25T07:42:22.102Z,9.09
2017-03-25T07:43:22.017Z,9.22
2017-03-25T07:44:22.230Z,9.10
2017-03-25T07:45:21.564Z,8.91
2017-03-25T07:46:22.295Z,9.25
2017-03-25T07:47:22.434Z,9.28
2017-03-25T07:48:21.915Z,9.13
2017-03-25T07:49:22.044Z,9.06
2017-03-25T07:50:22.334Z,9.15
2017-03-25T07:51:18.918Z,9.17
2017-03-25T07:52:22.442Z,9.21
2017-03-25T07:53:17.573Z,8.88
2017-03-25T07:54:21.983Z,8.91
2017-03-25T07:55:21.887Z,9.00
2017-03-25T07:56:22.553Z,8.64
2017-03-25T07:57:22.025Z,8.56
2017-03-25T07:58:22.129Z,8.68
2017-03-25T07:59:21.670Z,8.88
2017-03-25T08:00:22.290Z,8.99
2017-03-25T08:01:21.821Z,8.86
2017-03-25T08:02:22.403Z,8.75
2017-03-25T08:03:22.935Z,8.68
2017-03-25T08:04:21.975Z,8.69
2017-03-25T08:05:21.972Z,8.95
2017-03-25T08:06:18.763Z,8.76
2017-03-25T08:07:22.750Z,8.60
2017-03-25T08:08:22.089Z,9.11
2017-03-25T08:09:21.773Z,8.91
2017-03-25T08:10:17.704Z,8.99
2017-03-25T08:11:11.967Z,9.06
2017-03-25T08:12:22.206Z,9.03
2017-03-25T08:13:19.397Z,8.90
2017-03-25T08:14:22.630Z,8.68
2017-03-25T08:15:22.221Z,8.88
2017-03-25T08:16:22.025Z,8.85
2017-03-25T08:17:22.230Z,8.86
2017-03-25T08:18:22.190Z,9.13
2017-03-25T08:19:16.201Z,9.32
2017-03-25T08:20:22.357Z,9.51
2017-03-25T08:21:19.082Z,9.48
2017-03-25T08:22:22.170Z,9.28
2017-03-25T08:23:17.081Z,9.16
2017-03-25T08:24:17.472Z,9.23
2017-03-25T08:25:23.004Z,9.29
2017-03-25T08:26:22.442Z,9.18
2017-03-25T08:27:21.721Z,9.24
2017-03-25T08:28:21.870Z,9.19
2017-03-25T08:29:22.778Z,9.43
2017-03-25T08:30:22.100Z,9.56
2017-03-25T08:31:22.437Z,9.64
2017-03-25T08:32:12.176Z,9.54
2017-03-25T08:33:23.342Z,9.78
2017-03-25T08:34:22.358Z,9.65
2017-03-25T08:35:22.376Z,9.45
2017-03-25T08:36:14.198Z,9.51
2017-03-25T08:37:22.198Z,9.61
2017-03-25T08:38:22.278Z,9.38
2017-03-25T08:39:22.657Z,9.32
2017-03-25T08:40:22.761Z,9.38
2017-03-25T08:41:22.116Z,9.62
2017-03-25T08:42:17.859Z,9.66
2017-03-25T08:43:21.951Z,9.60
2017-03-25T08:44:11.749Z,9.39
2017-03-25T08:45:17.088Z,9.35
2017-03-25T08:46:21.887Z,9.26
2017-03-25T08:47:22.228Z,9.05
2017-03-25T08:48:22.186Z,9.15
2017-03-25T08:49:21.919Z,9.52
2017-03-25T08:50:16.636Z,9.50
2017-03-25T08:51:19.558Z,9.09
2017-03-25T08:52:22.735Z,8.98
2017-03-25T08:53:17.039Z,9.09
2017-03-25T08:54:17.175Z,9.32
2017-03-25T08:55:22.466Z,9.73
2017-03-25T08:56:22.277Z,9.74
2017-03-25T08:57:17.799Z,9.68
2017-03-25T08:58:23.008Z,9.71
2017-03-25T08:59:22.374Z,9.77
2017-03-25T09:00:23.038Z,9.93
2017-03-25T09:01:22.127Z,9.61
2017-03-25T09:02:21.927Z,9.60
2017-03-25T09:03:22.048Z,9.76
2017-03-25T09:04:22.436Z,9.85
2017-03-25T09:05:21.946Z,10.04
2017-03-25T09:06:19.936Z,10.30
2017-03-25T09:07:21.846Z,10.43
2017-03-25T09:08:21.835Z,10.26
2017-03-25T09:09:21.931Z,10.19
2017-03-25T09:10:21.891Z,10.32
2017-03-25T09:11:11.700Z,10.38
2017-03-25T09:12:22.293Z,10.35
2017-03-25T09:13:27.555Z,9.90
2017-03-25T09:14:26.658Z,9.68
2017-03-25T09:15:21.396Z,9.88
2017-03-25T09:16:17.237Z,10.10
2017-03-25T09:17:22.356Z,9.99
2017-03-25T09:18:21.435Z,10.05
2017-03-25T09:19:16.940Z,10.26
2017-03-25T09:20:17.353Z,10.36
2017-03-25T09:22:17.588Z,10.61
2017-03-25T09:23:24.904Z,10.64
2017-03-25T09:24:17.140Z,10.62
2017-03-25T09:25:22.171Z,10.36
2017-03-25T09:26:19.632Z,10.39
2017-03-25T09:27:22.104Z,10.38
2017-03-25T09:29:14.409Z,10.61
2017-03-25T09:30:17.530Z,10.60
2017-03-25T09:31:17.590Z,10.44
2017-03-25T09:32:21.948Z,10.27
2017-03-25T09:33:22.189Z,10.61
2017-03-25T09:34:22.156Z,10.77
2017-03-25T09:35:21.897Z,10.67
2017-03-25T09:36:14.766Z,10.28
2017-03-25T09:37:21.892Z,9.93
2017-03-25T09:38:17.190Z,10.57
2017-03-25T09:39:21.900Z,10.55
2017-03-25T09:40:22.021Z,10.45
2017-03-25T09:41:22.131Z,10.44
2017-03-25T09:42:22.198Z,10.47
2017-03-25T09:46:18.595Z,10.27
2017-03-25T09:47:16.727Z,10.07
2017-03-25T09:48:22.562Z,9.98
2017-03-25T09:49:22.082Z,10.32
2017-03-25T09:50:17.170Z,10.50
2017-03-25T09:51:19.809Z,10.64
2017-03-25T09:52:21.885Z,10.69
2017-03-25T09:53:22.064Z,10.59
2017-03-25T09:54:21.923Z,10.44
2017-03-25T09:55:22.395Z,9.80
2017-03-25T09:56:21.855Z,9.64
2017-03-25T09:57:22.435Z,9.82
2017-03-25T09:58:22.403Z,9.94
2017-03-25T09:59:21.560Z,10.36
2017-03-25T10:00:21.432Z,10.56
2017-03-25T10:01:17.512Z,10.45
2017-03-25T10:02:22.793Z,10.69
2017-03-25T10:03:21.535Z,10.49
2017-03-25T10:04:21.799Z,10.50
2017-03-25T10:05:21.967Z,10.63
2017-03-25T10:06:19.772Z,10.78
2017-03-25T10:07:33.046Z,10.91
2017-03-25T10:08:22.838Z,10.84
2017-03-25T10:09:21.568Z,11.09
2017-03-25T10:10:21.640Z,10.85
2017-03-25T10:11:28.878Z,10.86
2017-03-25T10:12:21.838Z,10.88
2017-03-25T10:13:21.862Z,11.00
2017-03-25T10:14:21.569Z,10.89
2017-03-25T10:15:21.751Z,10.79
2017-03-25T10:16:21.877Z,10.86
2017-03-25T10:17:21.689Z,10.79
2017-03-25T10:18:22.163Z,10.90
2017-03-25T10:19:17.091Z,10.80
2017-03-25T10:20:21.892Z,10.65
2017-03-25T10:21:19.928Z,10.49
2017-03-25T10:22:22.330Z,10.61
2017-03-25T10:23:32.529Z,10.82
2017-03-25T10:24:17.637Z,10.90
2017-03-25T10:25:22.580Z,10.58
2017-03-25T10:26:22.397Z,10.69
2017-03-25T10:27:16.948Z,10.75
2017-03-25T10:28:29.082Z,10.67
2017-03-25T10:29:22.300Z,10.71
2017-03-25T10:30:21.686Z,10.74
2017-03-25T10:31:22.602Z,10.57
2017-03-25T10:32:33.976Z,10.54
2017-03-25T10:33:22.472Z,10.46
2017-03-25T10:34:21.713Z,10.32
2017-03-25T10:35:22.573Z,9.93
2017-03-25T10:36:19.815Z,10.04
2017-03-25T10:37:22.038Z,10.29
2017-03-25T10:38:21.663Z,10.61
2017-03-25T10:39:22.244Z,10.79
2017-03-25T10:40:22.354Z,10.90
2017-03-25T10:41:22.439Z,10.80
2017-03-25T10:42:23.108Z,10.86
2017-03-25T10:43:22.013Z,10.66
2017-03-25T10:44:21.768Z,10.74
2017-03-25T10:45:22.028Z,10.75
2017-03-25T10:46:22.548Z,10.83
2017-03-25T10:47:22.646Z,10.78
2017-03-25T10:48:22.536Z,10.88
2017-03-25T10:49:22.769Z,10.99
2017-03-25T10:50:23.496Z,11.10
2017-03-25T10:51:20.163Z,10.91
2017-03-25T10:52:17.141Z,10.91
2017-03-25T10:53:22.615Z,10.91
2017-03-25T10:54:17.623Z,10.91
2017-03-25T10:55:21.753Z,10.89
2017-03-25T10:56:17.536Z,11.01
2017-03-25T10:57:21.795Z,10.94
2017-03-25T10:58:17.038Z,11.10
2017-03-25T10:59:22.449Z,11.03
2017-03-25T11:00:22.719Z,11.04
2017-03-25T11:01:17.307Z,11.00
2017-03-25T11:02:17.429Z,10.99
2017-03-25T11:03:21.919Z,11.01
2017-03-25T11:04:17.261Z,11.02
2017-03-25T11:05:22.156Z,11.03
2017-03-25T11:06:19.974Z,11.10
2017-03-25T11:07:22.643Z,11.15
2017-03-25T11:08:21.841Z,11.22
2017-03-25T11:09:22.052Z,11.26
2017-03-25T11:10:21.572Z,11.00
2017-03-25T11:11:27.405Z,11.00
2017-03-25T11:12:21.713Z,11.12
2017-03-25T11:13:21.883Z,11.25
2017-03-25T11:14:22.773Z,11.27
2017-03-25T11:15:21.876Z,11.28
2017-03-25T11:16:22.185Z,11.33
2017-03-25T11:17:22.576Z,11.26
2017-03-25T11:18:21.714Z,11.21
2017-03-25T11:19:22.292Z,11.23
2017-03-25T11:20:22.574Z,11.27
2017-03-25T11:21:20.376Z,11.40
2017-03-25T11:22:17.459Z,11.56
2017-03-25T11:23:22.789Z,11.53
2017-03-25T11:24:22.658Z,11.48
2017-03-25T11:25:22.493Z,11.35
2017-03-25T11:26:17.706Z,11.42
2017-03-25T11:27:22.052Z,11.44
2017-03-25T11:28:22.483Z,11.29
2017-03-25T11:29:22.355Z,11.30
2017-03-25T11:30:20.346Z,11.28
2017-03-25T11:31:17.326Z,11.43
2017-03-25T11:32:22.545Z,11.44
2017-03-25T11:33:34.824Z,11.43
2017-03-25T11:34:22.939Z,11.51
2017-03-25T11:35:21.877Z,11.64
2017-03-25T11:36:20.741Z,11.71
2017-03-25T11:37:17.714Z,11.72
2017-03-25T11:38:21.887Z,11.62
2017-03-25T11:39:21.747Z,11.66
2017-03-25T11:40:27.770Z,11.63
2017-03-25T11:41:21.768Z,11.67
2017-03-25T11:43:30.410Z,11.71
2017-03-25T11:44:23.268Z,11.76
2017-03-25T11:45:35.589Z,11.86
2017-03-25T11:46:21.732Z,11.84
2017-03-25T11:47:17.612Z,11.94
2017-03-25T11:48:16.993Z,11.92
2017-03-25T11:49:22.129Z,11.91
2017-03-25T11:50:22.220Z,11.98
2017-03-25T11:51:21.510Z,12.09
2017-03-25T11:52:22.813Z,12.18
2017-03-25T11:53:22.807Z,12.13
2017-03-25T11:54:17.050Z,12.00
2017-03-25T11:55:16.779Z,12.06
2017-03-25T11:56:12.337Z,12.04
2017-03-25T11:59:45.715Z,12.33
2017-03-25T12:01:18.621Z,12.26
2017-03-25T12:02:22.416Z,12.20
2017-03-25T12:03:17.549Z,12.21
2017-03-25T12:04:11.368Z,12.25
2017-03-25T12:05:17.781Z,12.08
2017-03-25T12:06:10.701Z,12.17
2017-03-25T12:07:14.620Z,12.10
2017-03-25T12:08:12.641Z,12.26
2017-03-25T12:09:22.567Z,12.36
2017-03-25T12:12:34.572Z,12.46
2017-03-25T12:13:17.860Z,12.48
2017-03-25T12:14:33.222Z,12.55
2017-03-25T12:21:31.861Z,12.51
2017-03-25T12:23:15.790Z,12.61
2017-03-25T12:26:22.345Z,12.83
2017-03-25T12:32:23.652Z,13.06
2017-03-25T12:33:21.832Z,13.07
2017-03-25T12:34:17.119Z,12.89
2017-03-25T12:36:35.609Z,12.89
2017-03-25T12:38:29.893Z,12.82
2017-03-25T12:39:28.362Z,12.79
2017-03-25T12:41:11.766Z,12.89
2017-03-25T12:43:23.232Z,12.98
2017-03-25T12:44:27.174Z,12.86
2017-03-25T12:45:13.344Z,12.78
2017-03-25T12:48:21.545Z,12.86
2017-03-25T12:49:23.140Z,12.96
2017-03-25T12:50:22.769Z,13.13
2017-03-25T12:52:20.608Z,13.25
2017-03-25T12:56:33.315Z,13.24
2017-03-25T12:57:23.420Z,13.29
2017-03-25T12:59:17.458Z,13.50
2017-03-25T13:01:13.809Z,13.40
2017-03-25T13:04:27.606Z,13.43
2017-03-25T13:05:28.557Z,13.55
2017-03-25T13:06:28.492Z,13.67
2017-03-25T13:08:16.841Z,13.62
2017-03-25T13:09:22.603Z,13.65
2017-03-25T13:12:14.716Z,13.79
2017-03-25T13:14:17.717Z,13.70
2017-03-25T13:14:31.226Z,13.76
2017-03-25T13:15:17.372Z,13.81
2017-03-25T13:17:22.140Z,14.11
2017-03-25T13:18:22.594Z,14.05
2017-03-25T13:19:23.750Z,13.94
2017-03-25T13:20:22.129Z,14.15
2017-03-25T13:21:21.673Z,14.11
2017-03-25T13:22:22.458Z,14.25
2017-03-25T13:23:16.940Z,14.17
2017-03-25T13:24:22.149Z,14.13
2017-03-25T13:25:22.319Z,14.32
2017-03-25T13:26:22.331Z,14.51
2017-03-25T13:27:22.322Z,14.34
2017-03-25T13:28:21.725Z,14.39
2017-03-25T13:29:21.712Z,14.49
2017-03-25T13:30:22.358Z,14.34
2017-03-25T13:31:22.389Z,14.31
2017-03-25T13:32:22.284Z,14.27
2017-03-25T13:33:22.347Z,14.20
2017-03-25T13:34:22.322Z,14.14
2017-03-25T13:35:17.213Z,14.22
2017-03-25T13:36:21.788Z,14.45
2017-03-25T13:37:22.559Z,14.51
2017-03-25T13:38:34.874Z,14.68
2017-03-25T13:39:22.520Z,14.77
2017-03-25T13:40:22.153Z,14.93
2017-03-25T13:41:22.302Z,15.02
2017-03-25T13:42:22.728Z,15.57
2017-03-25T13:43:21.868Z,16.05
2017-03-25T13:44:22.326Z,17.14
2017-03-25T13:45:22.408Z,18.03
2017-03-25T13:46:22.313Z,18.49
2017-03-25T13:47:22.215Z,18.49
2017-03-25T13:48:21.891Z,17.73
2017-03-25T13:49:21.791Z,17.18
2017-03-25T13:50:22.481Z,16.61
2017-03-25T13:51:21.871Z,16.38
2017-03-25T13:52:21.665Z,16.84
2017-03-25T13:53:22.514Z,17.44
2017-03-25T13:54:17.114Z,17.41
2017-03-25T13:55:22.489Z,17.51
2017-03-25T13:56:22.271Z,17.51
2017-03-25T13:57:17.582Z,17.62
2017-03-25T13:58:21.631Z,17.43